createdAt,value
2022-09-14T00:01:58.844Z,92031.25
2022-09-14T00:04:31.243Z,92025.63
2022-09-14T00:07:03.592Z,92032.66
2022-09-14T00:09:35.962Z,92032.59
2022-09-14T00:12:08.256Z,92034.97
2022-09-14T00:14:41.483Z,92033.72
2022-09-14T00:17:14.446Z,92036.81
2022-09-14T00:19:47.102Z,92036.50
2022-09-14T00:22:19.891Z,92033.91
2022-09-14T00:24:52.394Z,92028.22
2022-09-14T00:27:24.888Z,92034.31
2022-09-14T00:29:57.242Z,92026.00
2022-09-14T00:32:30.207Z,92034.31
2022-09-14T00:35:02.663Z,92023.00
2022-09-14T00:37:34.987Z,92027.25
2022-09-14T00:40:09.985Z,92028.06
2022-09-14T00:42:42.359Z,92016.41
2022-09-14T00:45:17.663Z,92033.72
2022-09-14T00:47:53.392Z,92034.91
2022-09-14T00:50:25.775Z,92032.03
2022-09-14T00:52:58.796Z,92036.91
2022-09-14T00:55:32.699Z,92037.63
2022-09-14T00:58:05.019Z,92040.44
2022-09-14T01:00:37.523Z,92040.44
2022-09-14T01:03:10.503Z,92038.47
2022-09-14T01:05:59.967Z,92045.53
2022-09-14T01:08:46.484Z,92040.31
2022-09-14T01:11:39.643Z,92041.13
2022-09-14T01:14:20.187Z,92042.88
2022-09-14T01:17:01.743Z,92043.78
2022-09-14T01:19:53.582Z,92037.94
2022-09-14T01:22:36.632Z,92034.84
2022-09-14T01:25:19.902Z,92036.75
2022-09-14T01:27:56.431Z,92035.97
2022-09-14T01:30:33.262Z,92039.47
2022-09-14T01:33:13.366Z,92041.31
2022-09-14T01:35:48.982Z,92034.53
2022-09-14T01:38:27.324Z,92032.84
2022-09-14T01:41:03.034Z,92034.97
2022-09-14T01:43:40.255Z,92043.56
2022-09-14T01:46:16.310Z,92040.19
2022-09-14T01:48:52.611Z,92019.72
2022-09-14T01:51:31.206Z,92037.88
2022-09-14T01:54:09.823Z,92040.59
2022-09-14T01:56:50.903Z,92035.22
2022-09-14T01:59:26.219Z,92044.09
2022-09-14T02:02:02.824Z,92037.25
2022-09-14T02:04:41.145Z,92027.66
2022-09-14T02:07:14.239Z,92042.69
2022-09-14T02:09:48.051Z,92034.75
2022-09-14T02:12:21.898Z,92027.22
2022-09-14T02:14:55.145Z,92042.88
2022-09-14T02:17:29.082Z,92040.38
2022-09-14T02:20:05.306Z,92033.91
2022-09-14T02:22:37.751Z,92034.97
2022-09-14T02:25:10.417Z,92032.97
2022-09-14T02:27:42.748Z,92034.50
2022-09-14T02:30:20.283Z,92033.72
2022-09-14T02:33:02.733Z,92035.19
2022-09-14T02:35:39.641Z,92036.28
2022-09-14T02:38:19.558Z,92029.06
2022-09-14T02:40:56.615Z,92036.09
2022-09-14T02:43:39.335Z,92033.41
2022-09-14T02:46:17.455Z,92031.28
2022-09-14T02:48:55.666Z,92034.75
2022-09-14T02:51:33.581Z,92044.81
2022-09-14T02:54:11.655Z,92036.31
2022-09-14T02:56:45.026Z,92039.78
2022-09-14T02:59:17.884Z,92038.16
2022-09-14T03:01:50.928Z,92037.66
2022-09-14T03:04:23.253Z,92037.97
2022-09-14T03:06:56.114Z,92036.41
2022-09-14T03:09:28.455Z,92041.25
2022-09-14T03:12:00.876Z,92041.16
2022-09-14T03:14:33.206Z,92043.50
2022-09-14T03:17:06.375Z,92043.19
2022-09-14T03:19:40.439Z,92044.75
2022-09-14T03:22:12.745Z,92043.50
2022-09-14T03:24:44.999Z,92041.44
2022-09-14T03:27:17.313Z,92048.78
2022-09-14T03:29:49.615Z,92036.16
2022-09-14T03:32:22.590Z,92035.22
2022-09-14T03:34:54.928Z,92032.28
2022-09-14T03:37:27.481Z,92044.66
2022-09-14T03:39:59.852Z,92037.63
2022-09-14T03:42:32.272Z,92037.50
2022-09-14T03:45:05.719Z,92037.72
2022-09-14T03:47:38.884Z,92043.22
2022-09-14T03:50:12.606Z,92041.19
2022-09-14T03:52:45.022Z,92035.78
2022-09-14T03:55:18.526Z,92041.28
2022-09-14T03:57:53.774Z,92048.53
2022-09-14T04:00:26.041Z,92049.31
2022-09-14T04:03:00.505Z,92045.22
2022-09-14T04:05:33.830Z,92035.88
2022-09-14T04:08:06.156Z,92035.13
2022-09-14T04:10:40.029Z,92039.94
2022-09-14T04:13:12.380Z,92031.91
2022-09-14T04:15:44.698Z,92041.59
2022-09-14T04:18:17.651Z,92043.22
2022-09-14T04:20:54.708Z,92043.69
2022-09-14T04:23:27.720Z,92032.50
2022-09-14T04:26:00.047Z,92041.09
2022-09-14T04:28:32.339Z,92038.78
2022-09-14T04:31:04.816Z,92039.25
2022-09-14T04:33:39.663Z,92037.72
2022-09-14T04:36:13.866Z,92038.97
2022-09-14T04:38:46.791Z,92036.47
2022-09-14T04:41:20.778Z,92044.75
2022-09-14T04:43:54.593Z,92046.69
2022-09-14T04:46:29.098Z,92046.88
2022-09-14T04:49:02.245Z,92050.38
2022-09-14T04:51:35.646Z,92053.25
2022-09-14T04:54:07.963Z,92049.03
2022-09-14T04:56:40.767Z,92054.88
2022-09-14T04:59:14.644Z,92053.06
2022-09-14T05:01:47.929Z,92052.66
2022-09-14T05:04:20.979Z,92054.59
2022-09-14T05:06:53.223Z,92056.06
2022-09-14T05:09:25.779Z,92060.38
2022-09-14T05:11:58.071Z,92065.03
2022-09-14T05:14:30.387Z,92062.34
2022-09-14T05:17:03.831Z,92063.66
2022-09-14T05:19:36.827Z,92066.34
2022-09-14T05:22:09.116Z,92076.28
2022-09-14T05:24:41.595Z,92081.59
2022-09-14T05:27:13.895Z,92073.38
2022-09-14T05:29:46.204Z,92073.91
2022-09-14T05:32:18.528Z,92069.06
2022-09-14T05:34:51.486Z,92081.03
2022-09-14T05:37:23.803Z,92079.75
2022-09-14T05:39:56.292Z,92087.22
2022-09-14T05:42:28.632Z,92085.31
2022-09-14T05:45:00.986Z,92083.09
2022-09-14T05:47:37.093Z,92092.22
2022-09-14T05:50:11.963Z,92095.72
2022-09-14T05:52:44.373Z,92095.00
2022-09-14T05:55:16.730Z,92086.19
2022-09-14T05:57:49.526Z,92071.13
2022-09-14T06:00:22.028Z,92091.66
2022-09-14T06:02:55.502Z,92091.25
2022-09-14T06:05:28.569Z,92096.50
2022-09-14T06:08:01.155Z,92094.97
2022-09-14T06:10:33.444Z,92097.31
2022-09-14T06:13:05.785Z,92090.84
2022-09-14T06:15:38.111Z,92087.41
2022-09-14T06:18:10.467Z,92090.34
2022-09-14T06:20:50.750Z,92087.06
2022-09-14T06:23:23.154Z,92082.09
2022-09-14T06:25:56.522Z,92078.56
2022-09-14T06:28:29.739Z,92087.41
2022-09-14T06:31:03.778Z,92086.72
2022-09-14T06:33:36.303Z,92083.88
2022-09-14T06:36:11.983Z,92064.38
2022-09-14T06:38:44.337Z,92080.50
2022-09-14T06:41:19.719Z,92081.16
2022-09-14T06:43:55.089Z,92078.13
2022-09-14T06:46:29.559Z,92079.72
2022-09-14T06:49:05.128Z,92079.78
2022-09-14T06:51:39.758Z,92089.28
2022-09-14T06:54:13.293Z,92088.53
2022-09-14T06:56:46.170Z,92091.84
2022-09-14T06:59:19.265Z,92094.03
2022-09-14T07:01:51.845Z,92086.97
2022-09-14T07:04:24.664Z,92093.19
2022-09-14T07:06:57.744Z,92089.47
2022-09-14T07:09:31.092Z,92097.22
2022-09-14T07:12:03.531Z,92091.81
2022-09-14T07:14:36.226Z,92088.59
2022-09-14T07:17:08.543Z,92080.34
2022-09-14T07:19:40.876Z,92085.66
2022-09-14T07:22:13.793Z,92084.78
2022-09-14T07:24:46.087Z,92086.53
2022-09-14T07:27:18.366Z,92084.91
2022-09-14T07:29:50.746Z,92083.78
2022-09-14T07:32:23.042Z,92086.44
2022-09-14T07:34:55.330Z,92079.00
2022-09-14T07:37:29.657Z,92081.31
2022-09-14T07:40:02.290Z,92084.47
2022-09-14T07:42:34.619Z,92085.41
2022-09-14T07:45:07.558Z,92090.19
2022-09-14T07:47:39.816Z,92079.44
2022-09-14T07:50:12.202Z,92089.44
2022-09-14T07:52:45.184Z,92088.91
2022-09-14T07:55:18.402Z,92089.13
2022-09-14T07:57:56.643Z,92081.03
2022-09-14T08:00:29.087Z,92083.72
2022-09-14T08:03:01.345Z,92088.44
2022-09-14T08:05:33.799Z,92096.28
2022-09-14T08:08:06.695Z,92101.81
2022-09-14T08:10:38.976Z,92091.47
2022-09-14T08:13:12.403Z,92084.19
2022-09-14T08:15:44.754Z,92085.91
2022-09-14T08:18:18.098Z,92085.84
2022-09-14T08:20:50.383Z,92078.00
2022-09-14T08:23:24.475Z,92094.59
2022-09-14T08:26:01.223Z,92082.41
2022-09-14T08:28:35.129Z,92088.91
2022-09-14T08:31:09.282Z,92097.66
2022-09-14T08:33:43.511Z,92096.78
2022-09-14T08:36:17.453Z,92089.72
2022-09-14T08:38:50.566Z,92079.91
2022-09-14T08:41:28.259Z,92090.63
2022-09-14T08:44:05.662Z,92092.59
2022-09-14T08:46:43.550Z,92092.69
2022-09-14T08:49:25.024Z,92094.72
2022-09-14T08:51:57.695Z,92093.94
2022-09-14T08:54:32.291Z,92099.41
2022-09-14T08:57:13.170Z,92098.59
2022-09-14T08:59:54.852Z,92092.44
2022-09-14T09:02:40.301Z,92075.09
2022-09-14T09:05:29.333Z,92085.53
2022-09-14T09:08:08.149Z,92087.59
2022-09-14T09:10:41.782Z,92092.16
2022-09-14T09:13:18.197Z,92098.47
2022-09-14T09:15:52.706Z,92094.56
2022-09-14T09:18:35.997Z,92086.47
2022-09-14T09:21:14.239Z,92078.91
2022-09-14T09:23:46.511Z,92084.59
2022-09-14T09:26:26.813Z,92083.41
2022-09-14T09:29:02.039Z,92076.44
2022-09-14T09:31:58.244Z,92088.00
2022-09-14T09:34:57.824Z,92089.66
2022-09-14T09:37:49.166Z,92092.69
2022-09-14T09:40:30.808Z,92087.28
2022-09-14T09:43:05.933Z,92088.94
2022-09-14T09:45:56.290Z,92082.84
2022-09-14T09:48:32.224Z,92083.56
2022-09-14T09:51:09.854Z,92085.13
2022-09-14T09:53:47.964Z,92080.56
2022-09-14T09:56:23.085Z,92079.44
2022-09-14T09:58:56.234Z,92072.63
2022-09-14T10:01:30.435Z,92079.44
2022-09-14T10:04:06.981Z,92066.50
2022-09-14T10:06:44.220Z,92049.00
2022-09-14T10:09:18.372Z,92049.34
2022-09-14T10:11:58.164Z,92051.59
2022-09-14T10:14:35.102Z,92049.25
2022-09-14T10:17:16.555Z,92053.16
2022-09-14T10:19:50.842Z,92043.97
2022-09-14T10:22:27.284Z,92043.97
2022-09-14T10:25:01.604Z,92039.66
2022-09-14T10:27:39.983Z,92055.94
2022-09-14T10:30:18.745Z,92057.75
2022-09-14T10:32:56.053Z,92043.84
2022-09-14T10:35:40.090Z,92042.66
2022-09-14T10:38:28.803Z,92042.69
2022-09-14T10:41:15.224Z,92032.91
2022-09-14T10:44:21.908Z,92045.03
2022-09-14T10:47:16.306Z,92044.69
2022-09-14T10:50:02.417Z,92039.09
2022-09-14T10:52:46.111Z,92044.97
2022-09-14T10:55:36.318Z,92029.13
2022-09-14T10:58:28.467Z,92033.56
2022-09-14T11:01:13.108Z,92033.78
2022-09-14T11:03:58.392Z,92042.13
2022-09-14T11:06:53.707Z,92038.84
2022-09-14T11:09:28.941Z,92040.56
2022-09-14T11:12:11.440Z,92041.03
2022-09-14T11:15:03.288Z,92037.41
2022-09-14T11:17:56.579Z,92037.69
2022-09-14T11:20:42.988Z,92033.63
2022-09-14T11:23:27.231Z,92035.59
2022-09-14T11:26:06.687Z,92028.91
2022-09-14T11:28:43.330Z,92025.25
2022-09-14T11:31:21.920Z,92019.97
2022-09-14T11:33:59.444Z,92009.81
2022-09-14T11:36:37.033Z,92021.03
2022-09-14T11:39:17.776Z,92011.19
2022-09-14T11:41:55.258Z,92004.41
2022-09-14T11:44:33.909Z,92007.84
2022-09-14T11:47:09.437Z,92004.00
2022-09-14T11:49:54.478Z,92005.56
2022-09-14T11:52:30.529Z,92004.94
2022-09-14T11:55:10.371Z,92007.03
2022-09-14T11:57:45.602Z,92001.47
2022-09-14T12:00:59.651Z,91994.53
2022-09-14T12:04:03.995Z,91998.81
2022-09-14T12:06:56.390Z,91989.25
2022-09-14T12:09:42.755Z,92002.88
2022-09-14T12:12:33.001Z,92008.69
2022-09-14T12:15:19.071Z,91992.78
2022-09-14T12:17:53.332Z,92003.75
2022-09-14T12:20:43.873Z,92011.09
2022-09-14T12:23:24.637Z,92007.19
2022-09-14T12:26:27.904Z,92002.25
2022-09-14T12:29:31.194Z,92006.44
2022-09-14T12:32:23.975Z,92017.66
2022-09-14T12:35:33.476Z,92003.75
2022-09-14T12:38:39.981Z,91993.56
2022-09-14T12:41:57.680Z,91995.19
2022-09-14T12:44:36.915Z,91990.41
2022-09-14T12:47:57.985Z,91992.38
2022-09-14T12:50:35.423Z,91993.69
2022-09-14T12:53:25.226Z,91996.22
2022-09-14T12:56:03.649Z,91993.44
2022-09-14T12:58:55.939Z,91998.09
2022-09-14T13:01:48.209Z,92007.56
2022-09-14T13:06:43.684Z,92001.97
2022-09-14T13:09:20.602Z,92007.38
2022-09-14T13:11:55.475Z,91989.13
2022-09-14T13:14:31.471Z,92004.19
2022-09-14T13:17:06.143Z,92001.91
2022-09-14T13:19:38.651Z,92003.50
2022-09-14T13:22:19.177Z,92002.50
2022-09-14T13:24:52.322Z,91997.09
2022-09-14T13:27:27.363Z,92013.22
2022-09-14T13:30:01.791Z,92009.31
2022-09-14T13:32:35.695Z,92017.00
2022-09-14T13:35:16.689Z,92017.81
2022-09-14T13:37:50.012Z,92008.38
2022-09-14T13:40:23.862Z,92010.31
2022-09-14T13:42:57.442Z,92010.66
2022-09-14T13:45:30.230Z,92008.63
2022-09-14T13:48:04.626Z,92004.53
2022-09-14T13:50:37.030Z,92014.03
2022-09-14T13:53:38.257Z,92011.06
2022-09-14T13:56:27.498Z,92000.31
2022-09-14T13:59:20.979Z,92001.78
2022-09-14T14:01:57.568Z,91999.19
2022-09-14T14:04:34.447Z,91988.06
2022-09-14T14:07:17.425Z,91991.13
2022-09-14T14:09:53.101Z,91988.44
2022-09-14T14:12:28.540Z,91981.59
2022-09-14T14:15:03.186Z,91978.44
2022-09-14T14:17:38.159Z,91981.59
2022-09-14T14:20:35.312Z,91974.38
2022-09-14T14:23:21.042Z,91978.50
2022-09-14T14:26:07.092Z,91980.84
2022-09-14T14:28:40.866Z,91982.50
2022-09-14T14:31:15.206Z,91986.69
2022-09-14T14:33:50.648Z,91980.72
2022-09-14T14:36:22.960Z,91982.47
2022-09-14T14:38:56.707Z,91983.16
2022-09-14T14:41:29.772Z,91971.03
2022-09-14T14:44:02.573Z,91966.69
2022-09-14T14:46:35.004Z,91968.88
2022-09-14T14:49:10.959Z,91965.56
2022-09-14T14:51:43.520Z,91958.59
2022-09-14T14:54:17.308Z,91961.72
2022-09-14T14:56:51.281Z,91952.81
2022-09-14T14:59:29.056Z,91948.78
2022-09-14T15:02:01.626Z,91947.66
2022-09-14T15:04:33.875Z,91951.63
2022-09-14T15:07:06.179Z,91950.94
2022-09-14T15:09:38.398Z,91947.97
2022-09-14T15:12:11.582Z,91946.84
2022-09-14T15:14:43.926Z,91945.84
2022-09-14T15:17:16.203Z,91946.56
2022-09-14T15:19:48.496Z,91944.97
2022-09-14T15:22:21.092Z,91934.03
2022-09-14T15:24:53.400Z,91934.34
2022-09-14T15:27:26.403Z,91932.47
2022-09-14T15:29:58.723Z,91929.84
2022-09-14T15:32:30.992Z,91931.66
2022-09-14T15:35:03.927Z,91926.31
2022-09-14T15:37:36.209Z,91927.47
2022-09-14T15:40:10.212Z,91925.63
2022-09-14T15:42:43.319Z,91921.81
2022-09-14T15:45:15.747Z,91924.28
2022-09-14T15:47:48.178Z,91927.34
2022-09-14T15:50:20.559Z,91925.78
2022-09-14T15:52:52.866Z,91914.75
2022-09-14T15:55:25.142Z,91916.31
2022-09-14T15:57:58.173Z,91918.97
2022-09-14T16:00:30.465Z,91922.06
2022-09-14T16:03:03.439Z,91915.59
2022-09-14T16:05:37.443Z,91914.09
2022-09-14T16:08:09.711Z,91924.38
2022-09-14T16:10:41.995Z,91922.47
2022-09-14T16:13:14.929Z,91927.13
2022-09-14T16:15:47.215Z,91920.66
2022-09-14T16:18:19.684Z,91922.19
2022-09-14T16:20:52.019Z,91922.22
2022-09-14T16:23:24.451Z,91923.81
2022-09-14T16:25:56.787Z,91921.91
2022-09-14T16:28:29.784Z,91913.56
2022-09-14T16:31:07.576Z,91920.41
2022-09-14T16:33:42.329Z,91923.84
2022-09-14T16:36:18.139Z,91918.50
2022-09-14T16:38:50.479Z,91920.81
2022-09-14T16:41:23.010Z,91923.44
2022-09-14T16:43:57.086Z,91918.50
2022-09-14T16:46:31.095Z,91923.84
2022-09-14T16:49:05.435Z,91920.38
2022-09-14T16:51:38.322Z,91917.72
2022-09-14T16:54:14.954Z,91918.84
2022-09-14T16:56:47.841Z,91915.41
2022-09-14T16:59:20.842Z,91915.41
2022-09-14T17:01:55.259Z,91896.00
2022-09-14T17:04:28.134Z,91915.34
2022-09-14T17:07:00.437Z,91905.47
2022-09-14T17:09:33.635Z,91913.72
2022-09-14T17:12:06.988Z,91918.69
2022-09-14T17:14:39.927Z,91924.31
2022-09-14T17:17:12.251Z,91922.00
2022-09-14T17:19:44.553Z,91926.53
2022-09-14T17:22:16.910Z,91928.81
2022-09-14T17:24:49.158Z,91925.72
2022-09-14T17:27:21.615Z,91924.56
2022-09-14T17:29:54.574Z,91924.53
2022-09-14T17:32:26.856Z,91926.44
2022-09-14T17:34:59.196Z,91915.38
2022-09-14T17:37:31.535Z,91931.00
2022-09-14T17:40:05.465Z,91930.19
2022-09-14T17:42:38.261Z,91929.38
2022-09-14T17:45:11.552Z,91930.13
2022-09-14T17:47:43.923Z,91947.59
2022-09-14T17:50:18.683Z,91944.06
2022-09-14T17:52:51.183Z,91942.22
2022-09-14T17:55:23.664Z,91935.41
2022-09-14T17:57:55.969Z,91942.97
2022-09-14T18:00:29.020Z,91937.72
2022-09-14T18:03:01.431Z,91931.31
2022-09-14T18:05:33.720Z,91942.31
2022-09-14T18:08:06.374Z,91948.06
2022-09-14T18:10:38.755Z,91943.50
2022-09-14T18:13:11.037Z,91948.09
2022-09-14T18:15:44.056Z,91955.25
2022-09-14T18:18:18.102Z,91946.97
2022-09-14T18:20:50.717Z,91945.03
2022-09-14T18:23:23.060Z,91942.75
2022-09-14T18:25:55.870Z,91944.69
2022-09-14T18:28:28.805Z,91942.78
2022-09-14T18:31:04.108Z,91941.22
2022-09-14T18:33:37.226Z,91939.06
2022-09-14T18:36:09.828Z,91938.72
2022-09-14T18:38:42.535Z,91944.41
2022-09-14T18:41:16.170Z,91955.34
2022-09-14T18:43:50.927Z,91964.06
2022-09-14T18:46:28.152Z,91956.06
2022-09-14T18:49:02.496Z,91964.50
2022-09-14T18:51:34.800Z,91966.44
2022-09-14T18:54:08.194Z,91968.72
2022-09-14T18:56:40.969Z,91966.47
2022-09-14T18:59:14.698Z,91963.47
2022-09-14T19:01:47.917Z,91968.72
2022-09-14T19:04:20.325Z,91973.69
2022-09-14T19:06:52.931Z,91961.88
2022-09-14T19:09:25.772Z,91977.44
2022-09-14T19:11:58.113Z,91984.16
2022-09-14T19:14:30.880Z,91998.94
2022-09-14T19:17:03.911Z,92008.03
2022-09-14T19:19:36.544Z,91990.50
2022-09-14T19:22:09.213Z,92001.16
2022-09-14T19:24:41.515Z,91994.97
2022-09-14T19:27:14.283Z,91998.91
2022-09-14T19:29:46.606Z,91991.19
2022-09-14T19:32:20.075Z,91994.63
2022-09-14T19:34:52.418Z,91995.59
2022-09-14T19:37:24.927Z,91993.00
2022-09-14T19:39:57.410Z,92000.69
2022-09-14T19:42:29.831Z,92001.91
2022-09-14T19:45:04.084Z,91998.59
2022-09-14T19:47:41.110Z,92003.78
2022-09-14T19:50:13.448Z,92005.38
2022-09-14T19:52:45.727Z,92011.78
2022-09-14T19:55:19.349Z,92018.19
2022-09-14T19:57:51.729Z,92016.72
2022-09-14T20:00:24.094Z,92022.16
2022-09-14T20:02:57.173Z,92018.06
2022-09-14T20:05:29.689Z,92013.56
2022-09-14T20:08:02.300Z,92016.56
2022-09-14T20:10:34.909Z,92023.75
2022-09-14T20:13:07.239Z,92041.53
2022-09-14T20:15:39.576Z,92040.44
2022-09-14T20:18:12.594Z,92058.53
2022-09-14T20:20:44.947Z,92052.84
2022-09-14T20:23:17.315Z,92061.31
2022-09-14T20:25:51.811Z,92059.06
2022-09-14T20:28:25.207Z,92064.25
2022-09-14T20:30:58.312Z,92052.84
2022-09-14T20:33:32.168Z,92055.19
2022-09-14T20:36:06.451Z,92052.25
2022-09-14T20:38:42.384Z,92052.50
2022-09-14T20:41:17.236Z,92047.81
2022-09-14T20:43:49.860Z,92046.47
2022-09-14T20:46:23.800Z,92032.78
2022-09-14T20:48:57.757Z,92033.88
2022-09-14T20:51:30.218Z,92044.13
2022-09-14T20:54:03.020Z,92036.41
2022-09-14T20:56:35.715Z,92038.78
2022-09-14T20:59:11.303Z,92034.28
2022-09-14T21:01:46.078Z,92029.28
2022-09-14T21:04:20.830Z,92038.75
2022-09-14T21:06:54.906Z,92041.53
2022-09-14T21:09:27.187Z,92032.38
2022-09-14T21:11:59.462Z,92012.00
2022-09-14T21:14:31.786Z,92014.56
2022-09-14T21:17:04.136Z,92020.00
2022-09-14T21:19:37.677Z,92022.50
2022-09-14T21:22:09.962Z,92026.78
2022-09-14T21:24:42.235Z,92027.72
2022-09-14T21:27:14.527Z,92034.47
2022-09-14T21:29:48.751Z,92034.53
2022-09-14T21:32:21.383Z,92025.50
2022-09-14T21:34:54.339Z,92025.47
2022-09-14T21:37:29.200Z,92022.09
2022-09-14T21:40:02.057Z,92006.16
2022-09-14T21:42:34.391Z,92012.59
2022-09-14T21:45:07.651Z,92003.88
2022-09-14T21:47:40.156Z,92004.34
2022-09-14T21:50:13.158Z,91993.38
2022-09-14T21:52:45.432Z,91983.63
2022-09-14T21:55:18.434Z,91988.19
2022-09-14T21:57:50.998Z,91991.59
2022-09-14T22:00:25.513Z,91984.81
2022-09-14T22:03:01.144Z,91985.19
2022-09-14T22:05:34.534Z,91990.50
2022-09-14T22:08:06.892Z,91995.41
2022-09-14T22:10:39.791Z,91991.28
2022-09-14T22:13:12.112Z,91977.78
2022-09-14T22:15:44.530Z,91981.25
2022-09-14T22:18:16.860Z,91990.41
2022-09-14T22:20:56.474Z,91991.13
2022-09-14T22:23:28.844Z,91984.28
2022-09-14T22:26:05.108Z,91983.94
2022-09-14T22:28:39.359Z,91991.19
2022-09-14T22:31:11.653Z,91995.03
2022-09-14T22:33:44.238Z,92001.50
2022-09-14T22:36:17.552Z,92006.75
2022-09-14T22:38:49.867Z,92015.09
2022-09-14T22:41:22.375Z,92022.72
2022-09-14T22:43:55.327Z,92028.34
2022-09-14T22:46:27.799Z,92030.97
2022-09-14T22:49:00.231Z,92029.06
2022-09-14T22:51:33.183Z,92022.03
2022-09-14T22:54:06.209Z,92025.56
2022-09-14T22:56:39.164Z,92022.16
2022-09-14T22:59:11.515Z,92026.16
2022-09-14T23:01:44.220Z,92028.41
2022-09-14T23:04:16.567Z,92034.00
2022-09-14T23:06:49.603Z,92033.91
2022-09-14T23:09:22.051Z,92035.25
2022-09-14T23:11:54.346Z,92037.69
2022-09-14T23:14:27.187Z,92032.22
2022-09-14T23:16:59.490Z,92025.06
2022-09-14T23:19:31.841Z,92030.34
2022-09-14T23:22:04.931Z,92026.19
2022-09-14T23:24:37.256Z,92021.59
2022-09-14T23:27:09.656Z,92021.97
2022-09-14T23:29:42.018Z,92024.38
2022-09-14T23:32:14.350Z,92026.94
2022-09-14T23:34:47.458Z,92014.81
2022-09-14T23:37:20.426Z,92014.38
2022-09-14T23:39:52.736Z,92016.22
2022-09-14T23:42:25.126Z,92010.88
2022-09-14T23:44:57.748Z,92012.22
2022-09-14T23:47:30.044Z,92011.69
2022-09-14T23:50:02.490Z,92015.41
2022-09-14T23:52:36.216Z,92017.66
2022-09-14T23:55:09.160Z,92010.69
2022-09-14T23:57:41.546Z,92006.56
